Time;durP1;ratioP1;P1;durP2;ratioP2;P2;SDS_P1;SDS_P2;PMS_P1;PMS_P2;Temp;Humidity;BMP_temperature;BMP_pressure;BME280_temperature;BME280_humidity;BME280_pressure;Samples;Min_cycle;Max_cycle;Signal;HPM_P1;HPM_P2
2023/09/11 00:02:26;;;;;;;12.60;9.13;;;;;;;;;;5033691;28;20496;-58
2023/09/11 00:04:51;;;;;;;17.52;9.05;;;;;;;;;;5034130;28;20437;-58
2023/09/11 00:07:17;;;;;;;13.87;9.73;;;;;;;;;;5029779;28;20809;-58
2023/09/11 00:09:42;;;;;;;16.20;9.20;;;;;;;;;;5028714;28;20401;-58
2023/09/11 00:12:07;;;;;;;15.90;9.43;;;;;;;;;;5030960;28;20422;-58
2023/09/11 00:14:33;;;;;;;14.97;8.93;;;;;;;;;;5029985;28;20403;-58
2023/09/11 00:16:58;;;;;;;14.57;8.50;;;;;;;;;;5034656;28;20765;-58
2023/09/11 00:19:23;;;;;;;13.90;9.40;;;;;;;;;;5030305;28;20898;-58
2023/09/11 00:21:48;;;;;;;15.20;9.53;;;;;;;;;;5031684;28;20410;-58
2023/09/11 00:24:14;;;;;;;13.70;9.17;;;;;;;;;;5028507;28;20399;-58
2023/09/11 00:26:39;;;;;;;13.57;9.27;;;;;;;;;;5032934;28;20397;-58
2023/09/11 00:29:04;;;;;;;13.90;9.00;;;;;;;;;;5033397;28;20782;-58
2023/09/11 00:31:29;;;;;;;16.37;9.37;;;;;;;;;;5029084;28;20398;-58
2023/09/11 00:33:55;;;;;;;13.85;9.05;;;;;;;;;;5027581;28;20922;-58
2023/09/11 00:36:21;;;;;;;11.77;9.27;;;;;;;;;;5039102;28;20497;-58
2023/09/11 00:38:47;;;;;;;16.52;9.20;;;;;;;;;;5030821;28;20425;-58
2023/09/11 00:41:13;;;;;;;12.65;9.07;;;;;;;;;;5026276;28;20643;-58
2023/09/11 00:43:38;;;;;;;16.02;9.73;;;;;;;;;;5022986;28;20920;-58
2023/09/11 00:46:05;;;;;;;13.73;9.13;;;;;;;;;;5025959;28;20944;-58
2023/09/11 00:48:31;;;;;;;13.90;9.00;;;;;;;;;;5021039;28;20394;-58
2023/09/11 00:50:56;;;;;;;16.98;9.00;;;;;;;;;;5023466;28;20424;-58
2023/09/11 00:53:21;;;;;;;14.45;9.45;;;;;;;;;;5026035;28;20823;-58
2023/09/11 00:55:47;;;;;;;14.60;9.48;;;;;;;;;;5023883;28;20439;-58
2023/09/11 00:58:15;;;;;;;14.50;8.82;;;;;;;;;;5022052;28;20419;-58
2023/09/11 01:00:40;;;;;;;14.43;8.63;;;;;;;;;;5024851;28;20730;-58
2023/09/11 01:03:05;;;;;;;15.10;9.50;;;;;;;;;;5023688;28;20418;-58
2023/09/11 01:05:30;;;;;;;13.93;8.63;;;;;;;;;;5021438;28;20396;-58
2023/09/11 01:07:56;;;;;;;15.17;8.37;;;;;;;;;;5033032;28;20414;-58
2023/09/11 01:10:21;;;;;;;14.93;9.00;;;;;;;;;;5036774;28;20492;-58
2023/09/11 01:12:46;;;;;;;15.17;9.20;;;;;;;;;;5028364;28;20422;-58
2023/09/11 01:15:12;;;;;;;17.80;9.93;;;;;;;;;;5022317;28;20446;-58
2023/09/11 01:17:38;;;;;;;15.07;9.67;;;;;;;;;;5026185;28;20411;-58
2023/09/11 01:20:36;;;;;;;16.42;9.52;;;;;;;;;;5024315;28;20746;-58
2023/09/11 01:23:34;;;;;;;13.45;9.35;;;;;;;;;;5021195;28;20441;-58
2023/09/11 01:26:03;;;;;;;16.02;10.20;;;;;;;;;;5020811;28;20497;-58
2023/09/11 01:28:43;;;;;;;18.33;9.60;;;;;;;;;;5029183;28;20584;-58
2023/09/11 01:31:09;;;;;;;14.50;8.60;;;;;;;;;;5034166;28;20611;-58
2023/09/11 01:33:35;;;;;;;13.97;9.00;;;;;;;;;;5023243;28;20498;-58
2023/09/11 01:36:00;;;;;;;14.23;9.40;;;;;;;;;;5022684;28;20410;-59
2023/09/11 01:38:26;;;;;;;13.87;8.97;;;;;;;;;;5032554;28;20395;-58
2023/09/11 01:40:52;;;;;;;16.93;9.20;;;;;;;;;;5024109;28;20420;-58
2023/09/11 01:43:17;;;;;;;15.45;9.63;;;;;;;;;;5020064;28;20408;-58
2023/09/11 01:45:42;;;;;;;17.23;9.43;;;;;;;;;;5018670;28;20504;-58
2023/09/11 01:48:08;;;;;;;18.37;10.13;;;;;;;;;;5033606;28;20441;-58
2023/09/11 01:50:35;;;;;;;17.93;10.93;;;;;;;;;;5030494;28;20399;-58
2023/09/11 01:53:00;;;;;;;17.52;10.18;;;;;;;;;;5038904;28;20914;-58
2023/09/11 01:55:25;;;;;;;17.23;10.50;;;;;;;;;;5029908;28;20408;-58
2023/09/11 01:57:50;;;;;;;16.63;10.03;;;;;;;;;;5023295;28;20540;-58
2023/09/11 02:00:16;;;;;;;16.53;10.10;;;;;;;;;;5033935;28;20411;-58
2023/09/11 02:02:41;;;;;;;15.13;9.97;;;;;;;;;;5032530;28;20417;-58
2023/09/11 02:05:07;;;;;;;16.47;9.90;;;;;;;;;;5041747;28;20408;-58
2023/09/11 02:07:32;;;;;;;16.63;9.53;;;;;;;;;;5034021;28;20420;-58
2023/09/11 02:09:57;;;;;;;17.43;10.27;;;;;;;;;;5033624;28;20398;-58
2023/09/11 02:12:23;;;;;;;16.60;10.43;;;;;;;;;;5030232;28;20466;-58
2023/09/11 02:14:48;;;;;;;19.03;10.00;;;;;;;;;;5036042;28;20401;-58
2023/09/11 02:17:13;;;;;;;20.47;10.37;;;;;;;;;;5036114;28;20401;-58
2023/09/11 02:19:38;;;;;;;18.20;10.27;;;;;;;;;;5031608;28;20401;-58
2023/09/11 02:22:04;;;;;;;15.77;10.10;;;;;;;;;;5037317;28;20444;-58
2023/09/11 02:24:29;;;;;;;13.87;9.67;;;;;;;;;;5040025;28;20870;-58
2023/09/11 02:26:55;;;;;;;17.20;10.83;;;;;;;;;;5029953;28;20422;-58
2023/09/11 02:29:20;;;;;;;16.63;10.10;;;;;;;;;;5036461;28;20394;-58
2023/09/11 02:31:45;;;;;;;16.90;10.13;;;;;;;;;;5027106;28;20505;-58
2023/09/11 02:34:11;;;;;;;18.37;10.57;;;;;;;;;;5020861;28;20490;-58
2023/09/11 02:36:36;;;;;;;18.33;10.73;;;;;;;;;;5024458;28;20403;-58
2023/09/11 02:39:01;;;;;;;20.33;10.60;;;;;;;;;;5022820;28;20480;-58
2023/09/11 02:41:26;;;;;;;15.47;9.93;;;;;;;;;;5019534;28;20412;-58
2023/09/11 02:43:52;;;;;;;14.43;10.10;;;;;;;;;;5024272;28;20411;-58
2023/09/11 02:46:17;;;;;;;19.23;11.47;;;;;;;;;;5022596;28;20813;-58
2023/09/11 02:48:44;;;;;;;21.80;11.43;;;;;;;;;;5019878;28;20411;-58
2023/09/11 02:51:09;;;;;;;16.95;11.13;;;;;;;;;;5022611;28;20403;-58
2023/09/11 02:53:35;;;;;;;18.57;11.13;;;;;;;;;;5022648;28;20972;-58
2023/09/11 02:56:00;;;;;;;18.63;10.73;;;;;;;;;;5021535;28;20422;-59
2023/09/11 02:58:25;;;;;;;17.87;10.90;;;;;;;;;;5029025;28;20395;-58
2023/09/11 03:00:51;;;;;;;19.23;11.90;;;;;;;;;;5031573;28;20576;-58
2023/09/11 03:03:16;;;;;;;21.30;12.27;;;;;;;;;;5033174;28;20500;-58
2023/09/11 03:05:41;;;;;;;17.87;12.07;;;;;;;;;;5030703;28;21023;-58
2023/09/11 03:08:07;;;;;;;20.15;11.73;;;;;;;;;;5033667;28;20477;-58
2023/09/11 03:10:32;;;;;;;19.47;12.50;;;;;;;;;;5032157;28;20530;-57
2023/09/11 03:12:58;;;;;;;21.60;13.67;;;;;;;;;;5019742;28;20503;-58
2023/09/11 03:15:25;;;;;;;19.03;12.60;;;;;;;;;;5021695;28;20762;-58
2023/09/11 03:17:50;;;;;;;18.45;13.23;;;;;;;;;;5023413;28;20462;-58
2023/09/11 03:20:16;;;;;;;20.70;12.70;;;;;;;;;;5030021;28;20405;-58
2023/09/11 03:22:41;;;;;;;20.03;13.53;;;;;;;;;;5027667;28;20546;-58
2023/09/11 03:25:07;;;;;;;22.00;14.40;;;;;;;;;;5032361;28;20407;-58
2023/09/11 03:27:32;;;;;;;20.40;14.10;;;;;;;;;;5035707;28;20756;-58
2023/09/11 03:29:57;;;;;;;18.43;14.30;;;;;;;;;;5028875;28;20409;-58
2023/09/11 03:32:22;;;;;;;22.87;14.70;;;;;;;;;;5031789;28;20518;-58
2023/09/11 03:34:53;;;;;;;22.30;15.27;;;;;;;;;;5032049;28;20418;-58
2023/09/11 03:37:19;;;;;;;21.30;15.32;;;;;;;;;;5027281;28;20931;-58
2023/09/11 03:39:44;;;;;;;25.37;15.43;;;;;;;;;;5021211;28;20724;-58
2023/09/11 03:42:09;;;;;;;22.77;15.53;;;;;;;;;;5023384;28;20411;-58
2023/09/11 03:44:34;;;;;;;24.70;16.53;;;;;;;;;;5019494;28;20456;-58
2023/09/11 03:47:00;;;;;;;20.63;14.90;;;;;;;;;;5017480;28;20415;-58
2023/09/11 03:49:25;;;;;;;22.27;16.13;;;;;;;;;;5022920;28;20398;-58
2023/09/11 03:51:50;;;;;;;22.47;16.30;;;;;;;;;;5022649;28;20490;-58
2023/09/11 03:54:16;;;;;;;21.10;15.70;;;;;;;;;;5018628;28;20755;-58
2023/09/11 03:56:41;;;;;;;22.93;16.67;;;;;;;;;;5021840;28;20404;-58
2023/09/11 03:59:06;;;;;;;24.53;17.17;;;;;;;;;;5022723;28;20485;-58
2023/09/11 04:01:31;;;;;;;21.97;15.53;;;;;;;;;;5020786;28;20501;-58
2023/09/11 04:03:57;;;;;;;24.23;16.47;;;;;;;;;;5019883;28;20418;-58
2023/09/11 04:06:22;;;;;;;25.03;16.43;;;;;;;;;;5021388;28;20407;-58
2023/09/11 04:08:49;;;;;;;24.37;16.63;;;;;;;;;;5022820;28;20817;-58
2023/09/11 04:11:17;;;;;;;23.80;17.20;;;;;;;;;;5016758;28;21354;-58
2023/09/11 04:13:43;;;;;;;22.58;16.30;;;;;;;;;;5023276;28;20597;-58
2023/09/11 04:16:08;;;;;;;24.00;17.17;;;;;;;;;;5022101;28;20474;-58
2023/09/11 04:18:33;;;;;;;23.60;16.97;;;;;;;;;;5021964;28;20604;-58
2023/09/11 04:21:00;;;;;;;23.63;18.70;;;;;;;;;;5025351;28;20403;-58
2023/09/11 04:23:26;;;;;;;24.65;18.80;;;;;;;;;;5046129;28;20401;-58
2023/09/11 04:25:52;;;;;;;23.77;18.87;;;;;;;;;;5044566;28;20398;-58
2023/09/11 04:28:18;;;;;;;23.75;17.70;;;;;;;;;;5042767;28;20412;-58
2023/09/11 04:30:43;;;;;;;23.15;16.30;;;;;;;;;;5046342;28;20404;-58
2023/09/11 04:33:08;;;;;;;24.35;17.27;;;;;;;;;;5044893;28;20386;-58
2023/09/11 04:35:34;;;;;;;23.30;17.17;;;;;;;;;;5041845;28;20399;-58
2023/09/11 04:37:59;;;;;;;21.90;16.03;;;;;;;;;;5046467;28;20764;-58
2023/09/11 04:40:25;;;;;;;24.63;17.52;;;;;;;;;;5045412;28;20436;-58
2023/09/11 04:42:50;;;;;;;28.23;18.10;;;;;;;;;;5042914;28;20483;-58
2023/09/11 04:45:15;;;;;;;20.97;17.00;;;;;;;;;;5037997;28;20409;-58
2023/09/11 04:47:41;;;;;;;23.13;17.53;;;;;;;;;;5044618;28;20907;-58
2023/09/11 04:50:06;;;;;;;21.10;16.63;;;;;;;;;;5044804;28;20840;-58
2023/09/11 04:52:31;;;;;;;24.03;18.73;;;;;;;;;;5042340;28;20405;-58
2023/09/11 04:54:56;;;;;;;23.97;18.27;;;;;;;;;;5037550;28;20407;-58
2023/09/11 04:57:22;;;;;;;21.43;17.60;;;;;;;;;;5034832;28;20397;-58
2023/09/11 04:59:47;;;;;;;22.90;17.90;;;;;;;;;;5029641;28;20414;-58
2023/09/11 05:02:12;;;;;;;20.90;17.90;;;;;;;;;;5034177;28;20424;-58
2023/09/11 05:04:38;;;;;;;26.93;18.43;;;;;;;;;;5037975;28;20489;-58
2023/09/11 05:07:03;;;;;;;19.97;16.77;;;;;;;;;;5033123;28;20919;-58
2023/09/11 05:09:30;;;;;;;24.40;19.47;;;;;;;;;;5036842;28;20417;-57
2023/09/11 05:11:55;;;;;;;20.73;17.27;;;;;;;;;;5041228;28;20955;-58
2023/09/11 05:14:20;;;;;;;21.80;18.58;;;;;;;;;;5036093;28;20391;-58
2023/09/11 05:16:46;;;;;;;23.20;17.90;;;;;;;;;;5035802;28;20502;-58
2023/09/11 05:19:11;;;;;;;21.33;18.02;;;;;;;;;;5034810;28;20525;-58
2023/09/11 05:21:36;;;;;;;24.53;19.03;;;;;;;;;;5032189;28;20771;-57
2023/09/11 05:24:02;;;;;;;24.08;19.20;;;;;;;;;;5036914;28;20595;-58
2023/09/11 05:26:28;;;;;;;25.13;18.02;;;;;;;;;;5033932;28;20398;-58
2023/09/11 05:28:53;;;;;;;22.33;17.53;;;;;;;;;;5035992;28;20498;-58
2023/09/11 05:31:18;;;;;;;23.80;18.13;;;;;;;;;;5031715;28;20431;-58
2023/09/11 05:33:43;;;;;;;24.97;18.73;;;;;;;;;;5034905;28;20759;-58
2023/09/11 05:36:09;;;;;;;21.73;19.40;;;;;;;;;;5035725;28;20448;-58
2023/09/11 05:38:34;;;;;;;25.27;18.80;;;;;;;;;;5031487;28;20406;-58
2023/09/11 05:40:59;;;;;;;21.43;16.90;;;;;;;;;;5033248;28;20833;-58
2023/09/11 05:43:27;;;;;;;26.67;19.00;;;;;;;;;;5030395;28;21366;-57
2023/09/11 05:45:53;;;;;;;24.75;18.48;;;;;;;;;;5029517;28;20407;-58
2023/09/11 05:48:18;;;;;;;21.37;17.97;;;;;;;;;;5023504;28;20400;-58
2023/09/11 05:50:43;;;;;;;22.13;17.23;;;;;;;;;;5024449;28;20426;-58
2023/09/11 05:53:09;;;;;;;21.93;17.87;;;;;;;;;;5022951;28;20491;-58
2023/09/11 05:55:34;;;;;;;19.47;15.97;;;;;;;;;;5026759;28;20403;-58
2023/09/11 05:58:00;;;;;;;23.67;17.40;;;;;;;;;;5036085;28;20899;-58
2023/09/11 06:00:26;;;;;;;23.07;17.40;;;;;;;;;;5035524;28;20398;-58
2023/09/11 06:02:52;;;;;;;22.60;16.88;;;;;;;;;;5030440;28;20467;-58
2023/09/11 06:05:17;;;;;;;23.88;17.48;;;;;;;;;;5033284;28;20398;-58
2023/09/11 06:07:42;;;;;;;23.47;17.10;;;;;;;;;;5025315;28;20406;-58
2023/09/11 06:10:10;;;;;;;21.53;15.90;;;;;;;;;;5020999;28;20428;-58
2023/09/11 06:12:35;;;;;;;18.33;15.55;;;;;;;;;;5022560;28;20429;-58
2023/09/11 06:15:02;;;;;;;21.80;16.83;;;;;;;;;;5021391;28;20431;-60
2023/09/11 06:17:28;;;;;;;21.67;16.50;;;;;;;;;;5033980;28;20402;-58
2023/09/11 06:19:53;;;;;;;21.77;16.07;;;;;;;;;;5031997;28;20401;-58
2023/09/11 06:22:18;;;;;;;20.10;15.90;;;;;;;;;;5033566;28;20413;-58
2023/09/11 06:24:43;;;;;;;21.25;15.90;;;;;;;;;;5032263;28;20548;-58
2023/09/11 06:27:09;;;;;;;22.80;16.45;;;;;;;;;;5019603;28;20775;-58
2023/09/11 06:29:34;;;;;;;22.40;16.13;;;;;;;;;;5024081;28;20407;-58
2023/09/11 06:31:59;;;;;;;21.30;16.85;;;;;;;;;;5023639;28;20468;-58
2023/09/11 06:34:25;;;;;;;24.00;16.30;;;;;;;;;;5020029;28;20395;-58
2023/09/11 06:36:52;;;;;;;22.13;16.33;;;;;;;;;;5021886;28;20459;-58
2023/09/11 06:39:18;;;;;;;23.02;16.00;;;;;;;;;;5022386;28;20418;-58
2023/09/11 06:41:43;;;;;;;21.65;16.67;;;;;;;;;;5023640;28;20396;-58
2023/09/11 06:44:09;;;;;;;21.07;16.07;;;;;;;;;;5019726;28;20407;-58
2023/09/11 06:46:34;;;;;;;20.70;15.40;;;;;;;;;;5027467;28;20422;-58
2023/09/11 06:48:59;;;;;;;20.48;14.57;;;;;;;;;;5036110;28;20888;-58
2023/09/11 06:51:24;;;;;;;20.92;15.68;;;;;;;;;;5031330;28;20425;-58
2023/09/11 06:53:50;;;;;;;19.77;13.80;;;;;;;;;;5034173;28;20749;-58
2023/09/11 06:56:16;;;;;;;18.10;14.38;;;;;;;;;;5025071;28;20417;-58
2023/09/11 06:58:42;;;;;;;17.07;13.97;;;;;;;;;;5022183;28;20391;-58
2023/09/11 07:01:07;;;;;;;20.17;13.70;;;;;;;;;;5019314;28;20429;-59
2023/09/11 07:03:32;;;;;;;20.37;13.57;;;;;;;;;;5023933;28;20487;-58
2023/09/11 07:05:58;;;;;;;20.00;14.47;;;;;;;;;;5024297;28;20403;-58
2023/09/11 07:08:23;;;;;;;19.47;13.57;;;;;;;;;;5017298;28;20399;-59
2023/09/11 07:10:49;;;;;;;19.50;12.50;;;;;;;;;;5024123;28;20800;-58
2023/09/11 07:13:14;;;;;;;17.42;12.35;;;;;;;;;;5023430;28;20407;-59
2023/09/11 07:15:40;;;;;;;20.00;13.20;;;;;;;;;;5019676;28;20405;-58
2023/09/11 07:18:05;;;;;;;17.98;13.02;;;;;;;;;;5021564;28;20513;-58
2023/09/11 07:20:30;;;;;;;17.40;13.60;;;;;;;;;;5023266;28;20423;-58
2023/09/11 07:22:56;;;;;;;18.63;13.67;;;;;;;;;;5029732;28;20754;-58
2023/09/11 07:25:22;;;;;;;21.60;14.33;;;;;;;;;;5030875;28;20393;-58
2023/09/11 07:27:48;;;;;;;24.17;13.60;;;;;;;;;;5034157;28;20408;-58
2023/09/11 07:30:13;;;;;;;20.77;13.95;;;;;;;;;;5032803;28;20401;-58
2023/09/11 07:32:39;;;;;;;19.20;13.87;;;;;;;;;;5027278;28;20398;-58
2023/09/11 07:35:05;;;;;;;17.47;12.40;;;;;;;;;;5030589;28;20410;-59
2023/09/11 07:37:30;;;;;;;17.20;12.20;;;;;;;;;;5035383;28;20406;-58
2023/09/11 07:39:55;;;;;;;17.27;11.93;;;;;;;;;;5032327;28;20452;-58
2023/09/11 07:42:21;;;;;;;16.13;12.07;;;;;;;;;;5029014;28;20536;-58
2023/09/11 07:44:46;;;;;;;16.03;11.30;;;;;;;;;;5031419;28;20409;-58
2023/09/11 07:47:12;;;;;;;17.07;10.13;;;;;;;;;;5031905;28;20403;-58
2023/09/11 07:49:38;;;;;;;13.95;10.00;;;;;;;;;;5029708;28;20976;-58
2023/09/11 07:52:03;;;;;;;18.38;10.52;;;;;;;;;;5034591;28;20398;-58
2023/09/11 07:54:28;;;;;;;20.92;10.30;;;;;;;;;;5035839;28;20405;-58
2023/09/11 07:56:54;;;;;;;17.30;9.20;;;;;;;;;;5030864;28;20498;-58
2023/09/11 07:59:19;;;;;;;17.73;9.80;;;;;;;;;;5036628;28;20754;-58
2023/09/11 08:01:44;;;;;;;14.77;9.63;;;;;;;;;;5033106;28;20414;-58
2023/09/11 08:04:09;;;;;;;15.90;10.00;;;;;;;;;;5024042;28;20391;-58
2023/09/11 08:06:35;;;;;;;15.37;9.60;;;;;;;;;;5024520;28;20481;-58
2023/09/11 08:09:03;;;;;;;15.70;8.82;;;;;;;;;;5027326;28;20424;-58
2023/09/11 08:11:28;;;;;;;16.77;8.90;;;;;;;;;;5026052;28;20959;-58
2023/09/11 08:13:54;;;;;;;16.37;9.10;;;;;;;;;;5028891;28;20802;-58
2023/09/11 08:16:19;;;;;;;16.63;9.37;;;;;;;;;;5018780;28;20411;-59
2023/09/11 08:18:44;;;;;;;14.83;8.70;;;;;;;;;;5026326;28;20403;-59
2023/09/11 08:21:10;;;;;;;16.93;8.70;;;;;;;;;;5031144;28;20421;-59
2023/09/11 08:23:36;;;;;;;13.75;8.38;;;;;;;;;;5033224;28;20415;-58
2023/09/11 08:26:01;;;;;;;16.83;8.73;;;;;;;;;;5034249;28;21140;-59
2023/09/11 08:28:27;;;;;;;17.47;8.30;;;;;;;;;;5037051;28;20389;-58
2023/09/11 08:30:52;;;;;;;15.13;8.38;;;;;;;;;;5033572;28;20411;-58
2023/09/11 08:33:17;;;;;;;14.27;8.20;;;;;;;;;;5035772;28;20413;-59
2023/09/11 08:35:43;;;;;;;16.60;7.73;;;;;;;;;;5034782;28;20407;-58
2023/09/11 08:38:08;;;;;;;15.37;8.13;;;;;;;;;;5020052;28;20415;-58
2023/09/11 08:40:34;;;;;;;17.10;8.00;;;;;;;;;;5038084;28;20418;-59
2023/09/11 08:42:59;;;;;;;13.93;8.00;;;;;;;;;;5037923;28;20412;-59
2023/09/11 08:45:25;;;;;;;15.53;7.87;;;;;;;;;;5025682;28;20398;-59
2023/09/11 08:47:51;;;;;;;15.23;7.70;;;;;;;;;;5036143;28;20922;-58
2023/09/11 08:50:16;;;;;;;14.37;8.30;;;;;;;;;;5027864;28;20438;-58
2023/09/11 08:52:41;;;;;;;14.03;7.50;;;;;;;;;;5036252;28;20397;-59
2023/09/11 08:55:08;;;;;;;15.23;7.77;;;;;;;;;;5031136;28;20425;-59
2023/09/11 08:57:34;;;;;;;14.18;8.15;;;;;;;;;;5034754;28;20777;-58
2023/09/11 09:00:03;;;;;;;15.00;8.00;;;;;;;;;;5033702;28;20913;-58
2023/09/11 09:02:29;;;;;;;16.42;8.38;;;;;;;;;;5027153;28;20411;-59
2023/09/11 09:04:54;;;;;;;13.40;8.23;;;;;;;;;;5032429;28;20761;-58
2023/09/11 09:07:19;;;;;;;15.55;9.05;;;;;;;;;;5020426;28;20407;-59
2023/09/11 09:09:45;;;;;;;14.97;8.47;;;;;;;;;;5026996;28;20407;-58
2023/09/11 09:12:10;;;;;;;17.70;9.07;;;;;;;;;;5025324;28;20423;-59
2023/09/11 09:14:38;;;;;;;15.30;8.43;;;;;;;;;;5019716;28;20413;-58
2023/09/11 09:17:04;;;;;;;15.20;8.90;;;;;;;;;;5024381;28;20410;-59
2023/09/11 09:19:29;;;;;;;13.88;8.85;;;;;;;;;;5025539;28;20491;-58
2023/09/11 09:22:07;;;;;;;14.90;8.33;;;;;;;;;;5022675;28;20407;-58
2023/09/11 09:24:32;;;;;;;16.98;8.55;;;;;;;;;;5025324;28;20752;-59
2023/09/11 09:26:58;;;;;;;16.83;8.32;;;;;;;;;;5037481;28;20425;-58
2023/09/11 09:29:24;;;;;;;18.05;7.60;;;;;;;;;;5024768;28;20394;-59
2023/09/11 09:31:49;;;;;;;16.20;8.27;;;;;;;;;;5028168;28;20772;-58
2023/09/11 09:34:15;;;;;;;17.40;8.97;;;;;;;;;;5025840;28;20427;-59
2023/09/11 09:36:48;;;;;;;17.17;8.20;;;;;;;;;;5030224;28;20446;-59
2023/09/11 09:39:14;;;;;;;13.60;8.25;;;;;;;;;;5033529;28;20407;-58
2023/09/11 09:41:39;;;;;;;14.23;8.20;;;;;;;;;;5032808;28;20420;-58
2023/09/11 09:44:04;;;;;;;13.67;8.80;;;;;;;;;;5026274;28;20457;-59
2023/09/11 09:46:29;;;;;;;14.87;8.30;;;;;;;;;;5037041;28;20440;-58
2023/09/11 09:48:55;;;;;;;16.40;8.87;;;;;;;;;;5023533;28;20447;-58
2023/09/11 09:51:21;;;;;;;15.67;7.93;;;;;;;;;;5025061;28;21074;-59
2023/09/11 09:53:46;;;;;;;12.70;8.20;;;;;;;;;;5025069;28;20421;-58
2023/09/11 09:56:12;;;;;;;17.15;8.85;;;;;;;;;;5020990;28;20426;-58
2023/09/11 09:58:40;;;;;;;16.45;8.80;;;;;;;;;;5031394;28;20500;-58
2023/09/11 10:01:07;;;;;;;17.58;8.63;;;;;;;;;;5032941;28;20419;-59
2023/09/11 10:03:39;;;;;;;14.15;8.45;;;;;;;;;;5034778;28;20397;-58
2023/09/11 10:06:06;;;;;;;13.48;8.43;;;;;;;;;;5031370;28;21126;-59
2023/09/11 10:08:31;;;;;;;15.77;7.88;;;;;;;;;;5036690;28;20453;-59
2023/09/11 10:10:56;;;;;;;14.27;8.27;;;;;;;;;;5028060;28;20424;-58
2023/09/11 10:13:24;;;;;;;14.23;8.07;;;;;;;;;;5020912;28;20397;-59
2023/09/11 10:15:50;;;;;;;15.00;7.47;;;;;;;;;;5020641;28;20748;-58
2023/09/11 10:18:15;;;;;;;13.65;7.13;;;;;;;;;;5023721;28;20405;-58
2023/09/11 10:20:40;;;;;;;12.60;5.87;;;;;;;;;;5021751;28;20415;-59
2023/09/11 10:23:06;;;;;;;14.68;6.95;;;;;;;;;;5020658;28;20758;-59
2023/09/11 10:25:33;;;;;;;13.00;6.65;;;;;;;;;;5031863;28;20397;-59
2023/09/11 10:28:02;;;;;;;11.93;5.90;;;;;;;;;;5023548;28;20490;-58
2023/09/11 10:30:30;;;;;;;11.50;5.40;;;;;;;;;;5038799;28;20405;-58
2023/09/11 10:32:59;;;;;;;10.57;5.32;;;;;;;;;;5041237;28;21008;-59
2023/09/11 10:35:26;;;;;;;10.77;5.50;;;;;;;;;;5043767;28;20970;-58
2023/09/11 10:37:51;;;;;;;9.93;5.40;;;;;;;;;;5040094;28;20393;-58
2023/09/11 10:40:16;;;;;;;11.33;5.03;;;;;;;;;;5038931;28;20487;-59
2023/09/11 10:42:42;;;;;;;12.32;5.47;;;;;;;;;;5044192;28;20813;-58
2023/09/11 10:45:24;;;;;;;8.43;4.57;;;;;;;;;;5035402;28;20411;-59
2023/09/11 10:47:50;;;;;;;9.77;4.10;;;;;;;;;;5039942;28;20408;-58
2023/09/11 10:50:15;;;;;;;9.73;3.80;;;;;;;;;;5042497;28;20463;-59
2023/09/11 10:52:41;;;;;;;8.80;4.00;;;;;;;;;;5043368;28;20402;-59
2023/09/11 10:55:07;;;;;;;10.90;3.97;;;;;;;;;;5032043;28;20473;-59
2023/09/11 10:57:32;;;;;;;10.30;4.30;;;;;;;;;;5026732;28;20465;-58
2023/09/11 10:59:57;;;;;;;7.90;3.97;;;;;;;;;;5031425;28;20423;-58
2023/09/11 11:02:23;;;;;;;9.27;4.23;;;;;;;;;;5023282;28;20461;-59
2023/09/11 11:04:48;;;;;;;8.80;4.10;;;;;;;;;;5023954;28;20429;-58
2023/09/11 11:07:13;;;;;;;10.30;5.07;;;;;;;;;;5032732;28;20410;-59
2023/09/11 11:09:40;;;;;;;9.20;4.90;;;;;;;;;;5037523;28;20416;-59
2023/09/11 11:12:06;;;;;;;9.25;4.18;;;;;;;;;;5030971;28;20411;-59
2023/09/11 11:14:31;;;;;;;7.60;4.10;;;;;;;;;;5029091;28;20488;-59
2023/09/11 11:16:59;;;;;;;10.63;4.30;;;;;;;;;;5031396;28;20766;-58
2023/09/11 11:19:26;;;;;;;9.40;4.40;;;;;;;;;;5030381;28;20462;-59
2023/09/11 11:21:51;;;;;;;12.63;4.57;;;;;;;;;;5018865;28;20410;-58
2023/09/11 11:24:16;;;;;;;10.97;4.90;;;;;;;;;;5023148;28;20423;-58
2023/09/11 11:26:42;;;;;;;9.00;4.43;;;;;;;;;;5022887;28;20399;-59
2023/09/11 11:29:07;;;;;;;10.03;4.47;;;;;;;;;;5018590;28;20500;-59
2023/09/11 11:31:32;;;;;;;10.33;4.50;;;;;;;;;;5021558;28;20467;-59
2023/09/11 11:33:58;;;;;;;12.70;4.60;;;;;;;;;;5023141;28;20765;-58
2023/09/11 11:36:24;;;;;;;9.30;4.55;;;;;;;;;;5020753;28;20403;-59
2023/09/11 11:38:52;;;;;;;9.13;4.40;;;;;;;;;;5020461;28;20410;-58
2023/09/11 11:41:18;;;;;;;10.55;4.35;;;;;;;;;;5021897;28;20431;-59
2023/09/11 11:43:43;;;;;;;10.40;4.47;;;;;;;;;;5021882;28;20469;-58
2023/09/11 11:46:09;;;;;;;8.60;4.27;;;;;;;;;;5016376;28;20434;-59
2023/09/11 11:48:37;;;;;;;10.80;4.65;;;;;;;;;;5022590;28;20440;-58
2023/09/11 11:51:02;;;;;;;9.05;4.47;;;;;;;;;;5023127;28;21104;-59
2023/09/11 11:53:28;;;;;;;9.88;4.57;;;;;;;;;;5019910;28;20403;-59
2023/09/11 11:55:55;;;;;;;9.20;4.30;;;;;;;;;;5027979;28;20754;-58
2023/09/11 11:58:21;;;;;;;9.68;4.35;;;;;;;;;;5032497;28;20401;-58
2023/09/11 12:00:56;;;;;;;9.73;3.90;;;;;;;;;;5033557;28;20815;-58
2023/09/11 12:03:21;;;;;;;10.52;4.60;;;;;;;;;;5025888;28;20402;-59
2023/09/11 12:05:47;;;;;;;9.03;4.23;;;;;;;;;;5031739;28;20543;-58
2023/09/11 12:08:12;;;;;;;8.73;3.90;;;;;;;;;;5032506;28;20920;-58
2023/09/11 12:10:44;;;;;;;8.67;4.10;;;;;;;;;;5030223;28;20410;-58
2023/09/11 12:13:10;;;;;;;10.35;4.28;;;;;;;;;;5031040;28;20411;-59
2023/09/11 12:15:35;;;;;;;13.80;4.53;;;;;;;;;;5028010;28;20411;-58
2023/09/11 12:18:00;;;;;;;11.13;4.50;;;;;;;;;;5032151;28;20406;-60
2023/09/11 12:20:26;;;;;;;8.48;4.20;;;;;;;;;;5027450;28;20519;-58
2023/09/11 12:22:51;;;;;;;10.53;4.30;;;;;;;;;;5031556;28;20487;-58
2023/09/11 12:25:17;;;;;;;8.07;3.87;;;;;;;;;;5032248;28;20890;-59
2023/09/11 12:27:42;;;;;;;11.27;4.17;;;;;;;;;;5022776;28;20403;-58
2023/09/11 12:30:08;;;;;;;8.98;4.60;;;;;;;;;;5019964;28;20403;-59
2023/09/11 12:32:33;;;;;;;8.82;4.20;;;;;;;;;;5023224;28;21188;-58
2023/09/11 12:34:59;;;;;;;7.93;3.77;;;;;;;;;;5019928;28;20415;-58
2023/09/11 12:37:24;;;;;;;7.72;3.40;;;;;;;;;;5022725;28;20401;-59
2023/09/11 12:39:49;;;;;;;8.17;3.47;;;;;;;;;;5037887;28;20420;-59
2023/09/11 12:42:15;;;;;;;10.23;3.87;;;;;;;;;;5034536;28;20459;-58
2023/09/11 12:44:40;;;;;;;10.37;4.60;;;;;;;;;;5029350;28;20423;-58
2023/09/11 12:47:05;;;;;;;10.43;4.43;;;;;;;;;;5025460;28;20962;-59
2023/09/11 12:49:31;;;;;;;10.23;4.83;;;;;;;;;;5037559;28;20394;-58
2023/09/11 12:51:56;;;;;;;13.77;5.63;;;;;;;;;;5033175;28;20467;-58
2023/09/11 12:54:22;;;;;;;8.95;4.88;;;;;;;;;;5033825;28;20459;-58
2023/09/11 12:56:47;;;;;;;11.27;5.00;;;;;;;;;;5034494;28;20450;-59
2023/09/11 12:59:13;;;;;;;10.20;4.90;;;;;;;;;;5032664;28;20955;-58
2023/09/11 13:01:38;;;;;;;12.60;4.80;;;;;;;;;;5029717;28;20503;-58
2023/09/11 13:04:09;;;;;;;12.50;5.03;;;;;;;;;;5025837;28;20402;-59
2023/09/11 13:06:34;;;;;;;10.43;4.30;;;;;;;;;;5025487;28;20403;-58
2023/09/11 13:08:59;;;;;;;13.03;4.90;;;;;;;;;;5021285;28;20881;-58
2023/09/11 13:11:25;;;;;;;13.93;5.20;;;;;;;;;;5025381;28;20425;-58
2023/09/11 13:13:50;;;;;;;8.10;4.30;;;;;;;;;;5025397;28;20415;-58
2023/09/11 13:16:15;;;;;;;9.63;4.50;;;;;;;;;;5021510;28;20817;-58
2023/09/11 13:18:41;;;;;;;10.70;4.30;;;;;;;;;;5024238;28;20457;-58
2023/09/11 13:21:06;;;;;;;9.73;4.30;;;;;;;;;;5033773;28;20452;-58
2023/09/11 13:23:31;;;;;;;9.80;4.15;;;;;;;;;;5031646;28;20395;-58
2023/09/11 13:25:56;;;;;;;7.77;3.90;;;;;;;;;;5030352;28;20469;-58
2023/09/11 13:28:22;;;;;;;8.93;4.13;;;;;;;;;;5022900;28;20901;-58
2023/09/11 13:30:47;;;;;;;7.80;3.67;;;;;;;;;;5029853;28;20490;-58
2023/09/11 13:33:12;;;;;;;8.77;4.20;;;;;;;;;;5025119;28;20490;-59
2023/09/11 13:35:38;;;;;;;10.57;4.07;;;;;;;;;;5007293;28;20406;-58
2023/09/11 13:38:03;;;;;;;10.57;3.87;;;;;;;;;;4994537;28;20788;-59
2023/09/11 13:40:28;;;;;;;11.88;3.95;;;;;;;;;;4995535;28;20999;-58
2023/09/11 13:42:53;;;;;;;8.87;3.97;;;;;;;;;;5000518;28;20423;-58
2023/09/11 13:45:19;;;;;;;10.20;3.83;;;;;;;;;;4991288;28;20552;-59
2023/09/11 13:47:44;;;;;;;9.93;3.60;;;;;;;;;;5010057;28;20749;-58
2023/09/11 13:50:10;;;;;;;9.33;4.00;;;;;;;;;;5004170;28;20419;-59
2023/09/11 13:52:36;;;;;;;7.67;3.70;;;;;;;;;;5002347;28;20406;-59
2023/09/11 13:55:01;;;;;;;8.65;4.13;;;;;;;;;;5000854;28;20520;-59
2023/09/11 13:57:26;;;;;;;8.63;4.40;;;;;;;;;;4992172;28;20506;-58
2023/09/11 13:59:52;;;;;;;8.23;4.17;;;;;;;;;;4986032;28;20445;-58
2023/09/11 14:02:17;;;;;;;8.63;3.70;;;;;;;;;;4986905;28;20425;-58
2023/09/11 14:04:42;;;;;;;6.80;3.80;;;;;;;;;;4995903;28;20825;-58
2023/09/11 14:07:08;;;;;;;8.50;3.83;;;;;;;;;;4994662;28;20553;-58
2023/09/11 14:09:33;;;;;;;8.63;3.67;;;;;;;;;;4993291;28;20416;-58
2023/09/11 14:11:58;;;;;;;9.27;3.77;;;;;;;;;;4994588;28;20423;-58
2023/09/11 14:14:23;;;;;;;9.00;3.47;;;;;;;;;;4999094;28;20491;-58
2023/09/11 14:16:49;;;;;;;8.30;3.00;;;;;;;;;;5005986;28;20411;-58
2023/09/11 14:19:14;;;;;;;8.80;3.33;;;;;;;;;;4998819;28;20407;-58